IGO1152 VNKT-VIDP
Flight info
| Callsign | IGO1152 |
|---|---|
| Flight time | 1h 30m |
| Altitude | 34000 |
| Route | NARAN L626 HW W37 PUMOT |
| Aircraft | A320/M-SDE3FGHIRWY/LB1 |
Departure
| Time | 2025-12-31 03:21 |
|---|---|
| Airport | Tribhuvan International Airport (VNKT) |
Arrival
| Time | 2025-12-31 04:52 |
|---|---|
| Airport | Indira Gandhi International Airport (VIDP) |
| Time | Latitude | Longitude | Altitude | Speed | Heading |
|---|---|---|---|---|---|
| 2025-12-31 02:55 | 27.69988 | 85.35836 | 4398 ft | 0 kts | 292° |
| 2025-12-31 03:11 | 27.69983 | 85.35852 | 4398 ft | 2 kts | 292° |
| 2025-12-31 03:12 | 27.69972 | 85.35883 | 4397 ft | 2 kts | 292° |
| 2025-12-31 03:12 | 27.69961 | 85.35913 | 4397 ft | 2 kts | 294° |
| 2025-12-31 03:13 | 27.69938 | 85.35922 | 4397 ft | 2 kts | 22° |
| 2025-12-31 03:13 | 27.69934 | 85.35920 | 4397 ft | 2 kts | 22° |
| 2025-12-31 03:13 | 27.69966 | 85.35935 | 4397 ft | 2 kts | 22° |
| 2025-12-31 03:14 | 27.69987 | 85.35945 | 4397 ft | 0 kts | 22° |
| 2025-12-31 03:15 | 27.69998 | 85.35950 | 4397 ft | 4 kts | 22° |
| 2025-12-31 03:16 | 27.70110 | 85.36000 | 4397 ft | 13 kts | 22° |
| 2025-12-31 03:16 | 27.70207 | 85.36045 | 4398 ft | 17 kts | 22° |
| 2025-12-31 03:16 | 27.70462 | 85.36163 | 4398 ft | 14 kts | 20° |
| 2025-12-31 03:17 | 27.70701 | 85.36392 | 4401 ft | 19 kts | 23° |
| 2025-12-31 03:17 | 27.70826 | 85.36449 | 4399 ft | 15 kts | 26° |
| 2025-12-31 03:18 | 27.70842 | 85.36453 | 4398 ft | 0 kts | 202° |
| 2025-12-31 03:19 | 27.70404 | 85.36254 | 4402 ft | 97 kts | 203° |
| 2025-12-31 03:19 | 27.69612 | 85.35892 | 4397 ft | 148 kts | 201° |
| 2025-12-31 03:20 | 27.67491 | 85.34937 | 5434 ft | 166 kts | 202° |
| 2025-12-31 03:20 | 27.65579 | 85.33364 | 6177 ft | 185 kts | 236° |
| 2025-12-31 03:21 | 27.64979 | 85.30507 | 6881 ft | 197 kts | 277° |
| 2025-12-31 03:21 | 27.66440 | 85.27767 | 7564 ft | 218 kts | 322° |
| 2025-12-31 03:22 | 27.70758 | 85.26871 | 9070 ft | 228 kts | 17° |
| 2025-12-31 03:23 | 27.73219 | 85.29226 | 9903 ft | 249 kts | 64° |
| 2025-12-31 03:23 | 27.74650 | 85.33007 | 10728 ft | 273 kts | 64° |
| 2025-12-31 03:24 | 27.75771 | 85.37116 | 11975 ft | 280 kts | 88° |
| 2025-12-31 03:24 | 27.75510 | 85.39293 | 12589 ft | 284 kts | 109° |
| 2025-12-31 03:24 | 27.73117 | 85.42919 | 13674 ft | 298 kts | 148° |
| 2025-12-31 03:25 | 27.69231 | 85.44312 | 14865 ft | 296 kts | 185° |
| 2025-12-31 03:25 | 27.65393 | 85.43057 | 16088 ft | 287 kts | 219° |
| 2025-12-31 03:26 | 27.62348 | 85.37623 | 17982 ft | 279 kts | 265° |
| 2025-12-31 03:27 | 27.62887 | 85.33334 | 19158 ft | 281 kts | 294° |
| 2025-12-31 03:27 | 27.65090 | 85.29569 | 19851 ft | 303 kts | 303° |
| 2025-12-31 03:27 | 27.66345 | 85.27571 | 19958 ft | 319 kts | 303° |
| 2025-12-31 03:28 | 27.69036 | 85.23274 | 20206 ft | 350 kts | 303° |
| 2025-12-31 03:28 | 27.71452 | 85.18299 | 20496 ft | 374 kts | 285° |
| 2025-12-31 03:29 | 27.72408 | 85.12451 | 21331 ft | 381 kts | 280° |
| 2025-12-31 03:29 | 27.73301 | 85.06538 | 22379 ft | 383 kts | 280° |
| 2025-12-31 03:30 | 27.74614 | 84.97626 | 23845 ft | 384 kts | 280° |
| 2025-12-31 03:30 | 27.75048 | 84.94645 | 24267 ft | 385 kts | 280° |
| 2025-12-31 03:32 | 27.78469 | 84.70910 | 27790 ft | 380 kts | 279° |
| 2025-12-31 03:35 | 27.82050 | 84.45874 | 32775 ft | 344 kts | 280° |
| 2025-12-31 03:36 | 27.84686 | 84.27237 | 34117 ft | 351 kts | 279° |
| 2025-12-31 03:38 | 27.87737 | 84.05398 | 34114 ft | 352 kts | 279° |
| 2025-12-31 03:40 | 27.90757 | 83.83526 | 34093 ft | 351 kts | 279° |
| 2025-12-31 03:43 | 27.94105 | 83.58961 | 34083 ft | 352 kts | 279° |
| 2025-12-31 03:44 | 27.99352 | 83.40598 | 34069 ft | 352 kts | 288° |
| 2025-12-31 03:47 | 28.07330 | 83.17335 | 34033 ft | 353 kts | 288° |
| 2025-12-31 03:49 | 28.14398 | 82.96572 | 34063 ft | 354 kts | 288° |
| 2025-12-31 03:51 | 28.21147 | 82.76685 | 34054 ft | 353 kts | 288° |
| 2025-12-31 03:52 | 28.27282 | 82.58451 | 34038 ft | 353 kts | 287° |
| 2025-12-31 03:55 | 28.35125 | 82.35046 | 34041 ft | 352 kts | 287° |
| 2025-12-31 03:56 | 28.41189 | 82.16855 | 34044 ft | 352 kts | 287° |
| 2025-12-31 03:58 | 28.48087 | 81.96017 | 34069 ft | 352 kts | 287° |
| 2025-12-31 04:00 | 28.54959 | 81.75146 | 34045 ft | 354 kts | 286° |
| 2025-12-31 04:02 | 28.61280 | 81.54042 | 34097 ft | 351 kts | 282° |
| 2025-12-31 04:04 | 28.66723 | 81.32678 | 34113 ft | 351 kts | 283° |
| 2025-12-31 04:06 | 28.72184 | 81.11297 | 34107 ft | 352 kts | 283° |
| 2025-12-31 04:08 | 28.77619 | 80.89863 | 34099 ft | 352 kts | 283° |
| 2025-12-31 04:10 | 28.83017 | 80.68408 | 34092 ft | 353 kts | 283° |
| 2025-12-31 04:12 | 28.88394 | 80.46882 | 34093 ft | 353 kts | 283° |
| 2025-12-31 04:14 | 28.93745 | 80.25308 | 34102 ft | 353 kts | 283° |
| 2025-12-31 04:16 | 28.97486 | 80.03408 | 34094 ft | 352 kts | 276° |
| 2025-12-31 04:19 | 29.00019 | 79.78404 | 34090 ft | 352 kts | 277° |
| 2025-12-31 04:20 | 29.01954 | 79.58996 | 34111 ft | 352 kts | 277° |
| 2025-12-31 04:23 | 28.97041 | 79.34856 | 34098 ft | 369 kts | 250° |
| 2025-12-31 04:24 | 28.88349 | 79.16930 | 34077 ft | 370 kts | 250° |
| 2025-12-31 04:27 | 28.72774 | 78.96814 | 34057 ft | 410 kts | 225° |
| 2025-12-31 04:28 | 28.55838 | 78.84729 | 34063 ft | 411 kts | 226° |
| 2025-12-31 04:31 | 28.45732 | 78.63567 | 29705 ft | 327 kts | 265° |
| 2025-12-31 04:32 | 28.44565 | 78.45971 | 26030 ft | 315 kts | 264° |
| 2025-12-31 04:33 | 28.43963 | 78.37045 | 23896 ft | 307 kts | 264° |
| 2025-12-31 04:34 | 28.43461 | 78.29700 | 21945 ft | 316 kts | 264° |
| 2025-12-31 04:35 | 28.43114 | 78.24682 | 20698 ft | 325 kts | 264° |
| 2025-12-31 04:35 | 28.42769 | 78.19563 | 19763 ft | 323 kts | 264° |
| 2025-12-31 04:35 | 28.42597 | 78.17027 | 19379 ft | 320 kts | 264° |
| 2025-12-31 04:36 | 28.42252 | 78.12019 | 18634 ft | 316 kts | 264° |
| 2025-12-31 04:36 | 28.41909 | 78.07071 | 17811 ft | 313 kts | 264° |
| 2025-12-31 04:37 | 28.41563 | 78.02115 | 16776 ft | 316 kts | 264° |
| 2025-12-31 04:37 | 28.41209 | 77.97111 | 15767 ft | 318 kts | 264° |
| 2025-12-31 04:38 | 28.40701 | 77.89855 | 14365 ft | 297 kts | 263° |
| 2025-12-31 04:39 | 28.40383 | 77.85313 | 13631 ft | 281 kts | 263° |
| 2025-12-31 04:39 | 28.40072 | 77.80985 | 12851 ft | 269 kts | 263° |
| 2025-12-31 04:39 | 28.39921 | 77.78890 | 12465 ft | 264 kts | 263° |
| 2025-12-31 04:40 | 28.39627 | 77.74807 | 11716 ft | 255 kts | 263° |
| 2025-12-31 04:40 | 28.39520 | 77.70830 | 10998 ft | 255 kts | 278° |
| 2025-12-31 04:41 | 28.40814 | 77.67033 | 10274 ft | 263 kts | 292° |
| 2025-12-31 04:41 | 28.42069 | 77.63836 | 9671 ft | 266 kts | 292° |
| 2025-12-31 04:42 | 28.42802 | 77.61952 | 9264 ft | 268 kts | 292° |
| 2025-12-31 04:42 | 28.44288 | 77.58132 | 8587 ft | 256 kts | 292° |
| 2025-12-31 04:43 | 28.46383 | 77.52731 | 8052 ft | 234 kts | 287° |
| 2025-12-31 04:43 | 28.46715 | 77.50978 | 7907 ft | 226 kts | 277° |
| 2025-12-31 04:44 | 28.47207 | 77.47462 | 7325 ft | 227 kts | 278° |
| 2025-12-31 04:44 | 28.47706 | 77.43916 | 6751 ft | 227 kts | 278° |
| 2025-12-31 04:45 | 28.48114 | 77.40998 | 6222 ft | 229 kts | 278° |
| 2025-12-31 04:45 | 28.48614 | 77.37416 | 5467 ft | 226 kts | 279° |
| 2025-12-31 04:46 | 28.49100 | 77.33933 | 4723 ft | 220 kts | 278° |
| 2025-12-31 04:46 | 28.49569 | 77.30535 | 3963 ft | 215 kts | 281° |
| 2025-12-31 04:47 | 28.50259 | 77.27241 | 3220 ft | 211 kts | 282° |
| 2025-12-31 04:47 | 28.50938 | 77.24104 | 3007 ft | 202 kts | 282° |
| 2025-12-31 04:48 | 28.51595 | 77.21062 | 2817 ft | 193 kts | 281° |
| 2025-12-31 04:48 | 28.52190 | 77.18311 | 2374 ft | 166 kts | 281° |
| 2025-12-31 04:49 | 28.52727 | 77.15809 | 1925 ft | 162 kts | 280° |
| 2025-12-31 04:49 | 28.52995 | 77.14565 | 1715 ft | 162 kts | 281° |
| 2025-12-31 04:50 | 28.53780 | 77.10914 | 1052 ft | 153 kts | 283° |
| 2025-12-31 04:50 | 28.54274 | 77.08625 | 752 ft | 133 kts | 284° |
| 2025-12-31 04:51 | 28.54466 | 77.07732 | 746 ft | 36 kts | 284° |
| 2025-12-31 04:51 | 28.54665 | 77.07361 | 747 ft | 25 kts | 317° |
| 2025-12-31 04:52 | 28.54832 | 77.07146 | 748 ft | 20 kts | 18° |
| 2025-12-31 04:52 | 28.55136 | 77.07246 | 748 ft | 20 kts | 12° |
| 2025-12-31 04:53 | 28.55201 | 77.07443 | 751 ft | 20 kts | 105° |
| 2025-12-31 04:53 | 28.55163 | 77.07609 | 751 ft | 24 kts | 104° |
| 2025-12-31 04:54 | 28.55210 | 77.07960 | 747 ft | 16 kts | 61° |
| 2025-12-31 04:54 | 28.55194 | 77.08059 | 748 ft | 7 kts | 147° |
| 2025-12-31 04:55 | 28.55164 | 77.08081 | 749 ft | 0 kts | 147° |